sensor_id;sensor_type;location;lat;lon;timestamp;temperature;humidity
22065;DHT22;11197;53.110;8.468;2023-04-26T00:02:10;5.90;99.90
22065;DHT22;11197;53.110;8.468;2023-04-26T00:04:40;5.90;99.90
22065;DHT22;11197;53.110;8.468;2023-04-26T00:07:06;5.90;99.90
22065;DHT22;11197;53.110;8.468;2023-04-26T00:09:32;5.90;99.90
22065;DHT22;11197;53.110;8.468;2023-04-26T00:11:58;5.90;99.90
22065;DHT22;11197;53.110;8.468;2023-04-26T00:14:24;5.80;99.90
22065;DHT22;11197;53.110;8.468;2023-04-26T00:16:50;5.80;99.90
22065;DHT22;11197;53.110;8.468;2023-04-26T00:19:16;5.80;99.90
22065;DHT22;11197;53.110;8.468;2023-04-26T00:21:43;5.80;99.90
22065;DHT22;11197;53.110;8.468;2023-04-26T00:24:09;5.70;99.90
22065;DHT22;11197;53.110;8.468;2023-04-26T00:26:35;5.70;99.90
22065;DHT22;11197;53.110;8.468;2023-04-26T00:29:03;5.70;99.90
22065;DHT22;11197;53.110;8.468;2023-04-26T00:31:29;5.70;99.90
22065;DHT22;11197;53.110;8.468;2023-04-26T00:33:55;5.70;99.90
22065;DHT22;11197;53.110;8.468;2023-04-26T00:36:21;5.70;99.90
22065;DHT22;11197;53.110;8.468;2023-04-26T00:38:47;5.70;99.90
22065;DHT22;11197;53.110;8.468;2023-04-26T00:41:13;5.60;99.90
22065;DHT22;11197;53.110;8.468;2023-04-26T00:43:39;5.60;99.90
22065;DHT22;11197;53.110;8.468;2023-04-26T00:46:07;5.60;99.90
22065;DHT22;11197;53.110;8.468;2023-04-26T00:48:33;5.60;99.90
22065;DHT22;11197;53.110;8.468;2023-04-26T00:51:01;5.60;99.90
22065;DHT22;11197;53.110;8.468;2023-04-26T00:53:28;5.60;99.90
22065;DHT22;11197;53.110;8.468;2023-04-26T00:55:55;5.60;99.90
22065;DHT22;11197;53.110;8.468;2023-04-26T00:58:21;5.60;99.90
22065;DHT22;11197;53.110;8.468;2023-04-26T01:00:46;5.60;99.90
22065;DHT22;11197;53.110;8.468;2023-04-26T01:03:14;5.50;99.90
22065;DHT22;11197;53.110;8.468;2023-04-26T01:05:41;5.50;99.90
22065;DHT22;11197;53.110;8.468;2023-04-26T01:08:10;5.60;99.90
22065;DHT22;11197;53.110;8.468;2023-04-26T01:10:36;5.60;99.90
22065;DHT22;11197;53.110;8.468;2023-04-26T01:13:02;5.60;99.90
22065;DHT22;11197;53.110;8.468;2023-04-26T01:15:28;5.60;99.90
22065;DHT22;11197;53.110;8.468;2023-04-26T01:17:58;5.60;99.90
22065;DHT22;11197;53.110;8.468;2023-04-26T01:20:24;5.60;99.90
22065;DHT22;11197;53.110;8.468;2023-04-26T01:22:51;5.60;99.90
22065;DHT22;11197;53.110;8.468;2023-04-26T01:25:17;5.60;99.90
22065;DHT22;11197;53.110;8.468;2023-04-26T01:27:43;5.60;99.90
22065;DHT22;11197;53.110;8.468;2023-04-26T01:30:10;5.60;99.90
22065;DHT22;11197;53.110;8.468;2023-04-26T01:32:37;5.60;99.90
22065;DHT22;11197;53.110;8.468;2023-04-26T01:35:03;5.60;99.90
22065;DHT22;11197;53.110;8.468;2023-04-26T01:37:30;5.60;99.90
22065;DHT22;11197;53.110;8.468;2023-04-26T01:39:58;5.60;99.90
22065;DHT22;11197;53.110;8.468;2023-04-26T01:42:25;5.60;99.90
22065;DHT22;11197;53.110;8.468;2023-04-26T01:44:51;5.60;99.90
22065;DHT22;11197;53.110;8.468;2023-04-26T01:47:17;5.60;99.90
22065;DHT22;11197;53.110;8.468;2023-04-26T01:49:44;5.60;99.90
22065;DHT22;11197;53.110;8.468;2023-04-26T01:52:10;5.60;99.90
22065;DHT22;11197;53.110;8.468;2023-04-26T01:54:35;5.60;99.90
22065;DHT22;11197;53.110;8.468;2023-04-26T01:57:01;5.60;99.90
22065;DHT22;11197;53.110;8.468;2023-04-26T01:59:27;5.60;99.90
22065;DHT22;11197;53.110;8.468;2023-04-26T02:01:53;5.60;99.90
22065;DHT22;11197;53.110;8.468;2023-04-26T02:04:19;5.60;99.90
22065;DHT22;11197;53.110;8.468;2023-04-26T02:06:45;5.60;99.90
22065;DHT22;11197;53.110;8.468;2023-04-26T02:09:11;5.50;99.90
22065;DHT22;11197;53.110;8.468;2023-04-26T02:11:39;5.50;99.90
22065;DHT22;11197;53.110;8.468;2023-04-26T02:14:05;5.50;99.90
22065;DHT22;11197;53.110;8.468;2023-04-26T02:16:30;5.50;99.90
22065;DHT22;11197;53.110;8.468;2023-04-26T02:18:57;5.50;99.90
22065;DHT22;11197;53.110;8.468;2023-04-26T02:21:24;5.50;99.90
22065;DHT22;11197;53.110;8.468;2023-04-26T02:23:51;5.50;99.90
22065;DHT22;11197;53.110;8.468;2023-04-26T02:26:17;5.50;99.90
22065;DHT22;11197;53.110;8.468;2023-04-26T02:28:43;5.50;99.90
22065;DHT22;11197;53.110;8.468;2023-04-26T02:31:09;5.50;99.90
22065;DHT22;11197;53.110;8.468;2023-04-26T02:33:35;5.40;99.90
22065;DHT22;11197;53.110;8.468;2023-04-26T02:36:02;5.40;99.90
22065;DHT22;11197;53.110;8.468;2023-04-26T02:38:29;5.40;99.90
22065;DHT22;11197;53.110;8.468;2023-04-26T02:41:00;5.40;99.90
22065;DHT22;11197;53.110;8.468;2023-04-26T02:43:27;5.30;99.90
22065;DHT22;11197;53.110;8.468;2023-04-26T02:45:54;5.30;99.90
22065;DHT22;11197;53.110;8.468;2023-04-26T02:48:20;5.30;99.90
22065;DHT22;11197;53.110;8.468;2023-04-26T02:50:46;5.30;99.90
22065;DHT22;11197;53.110;8.468;2023-04-26T02:53:14;5.30;99.90
22065;DHT22;11197;53.110;8.468;2023-04-26T02:55:42;5.30;99.90
22065;DHT22;11197;53.110;8.468;2023-04-26T02:58:08;5.30;99.90
22065;DHT22;11197;53.110;8.468;2023-04-26T03:00:34;5.20;99.90
22065;DHT22;11197;53.110;8.468;2023-04-26T03:03:00;5.20;99.90
22065;DHT22;11197;53.110;8.468;2023-04-26T03:05:27;5.30;99.90
22065;DHT22;11197;53.110;8.468;2023-04-26T03:07:53;5.20;99.90
22065;DHT22;11197;53.110;8.468;2023-04-26T03:10:19;5.30;99.90
22065;DHT22;11197;53.110;8.468;2023-04-26T03:12:45;5.20;99.90
22065;DHT22;11197;53.110;8.468;2023-04-26T03:15:11;5.20;99.90
22065;DHT22;11197;53.110;8.468;2023-04-26T03:17:38;5.20;99.90
22065;DHT22;11197;53.110;8.468;2023-04-26T03:20:05;5.10;99.90
22065;DHT22;11197;53.110;8.468;2023-04-26T03:22:32;5.10;99.90
22065;DHT22;11197;53.110;8.468;2023-04-26T03:24:58;5.10;99.90
22065;DHT22;11197;53.110;8.468;2023-04-26T03:27:26;5.10;99.90
22065;DHT22;11197;53.110;8.468;2023-04-26T03:29:52;5.10;99.90
22065;DHT22;11197;53.110;8.468;2023-04-26T03:32:18;5.10;99.90
22065;DHT22;11197;53.110;8.468;2023-04-26T03:34:44;5.10;99.90
22065;DHT22;11197;53.110;8.468;2023-04-26T03:37:12;5.00;99.90
22065;DHT22;11197;53.110;8.468;2023-04-26T03:39:39;5.00;99.90
22065;DHT22;11197;53.110;8.468;2023-04-26T03:42:05;5.00;99.90
22065;DHT22;11197;53.110;8.468;2023-04-26T03:44:32;5.00;99.90
22065;DHT22;11197;53.110;8.468;2023-04-26T03:46:59;5.00;99.90
22065;DHT22;11197;53.110;8.468;2023-04-26T03:49:25;5.00;99.90
22065;DHT22;11197;53.110;8.468;2023-04-26T03:51:51;5.00;99.90
22065;DHT22;11197;53.110;8.468;2023-04-26T03:54:17;5.00;99.90
22065;DHT22;11197;53.110;8.468;2023-04-26T03:56:43;4.90;99.90
22065;DHT22;11197;53.110;8.468;2023-04-26T03:59:11;4.90;99.90
22065;DHT22;11197;53.110;8.468;2023-04-26T04:01:37;4.90;99.90
22065;DHT22;11197;53.110;8.468;2023-04-26T04:04:03;4.90;99.90
22065;DHT22;11197;53.110;8.468;2023-04-26T04:06:30;4.90;99.90
22065;DHT22;11197;53.110;8.468;2023-04-26T04:08:57;4.80;99.90
22065;DHT22;11197;53.110;8.468;2023-04-26T04:11:23;4.80;99.90
22065;DHT22;11197;53.110;8.468;2023-04-26T04:13:49;4.80;99.90
22065;DHT22;11197;53.110;8.468;2023-04-26T04:16:15;4.80;99.90
22065;DHT22;11197;53.110;8.468;2023-04-26T04:18:41;4.80;99.90
22065;DHT22;11197;53.110;8.468;2023-04-26T04:21:07;4.80;99.90
22065;DHT22;11197;53.110;8.468;2023-04-26T04:23:33;4.80;99.90
22065;DHT22;11197;53.110;8.468;2023-04-26T04:26:04;4.80;99.90
22065;DHT22;11197;53.110;8.468;2023-04-26T04:28:31;4.80;99.90
22065;DHT22;11197;53.110;8.468;2023-04-26T04:30:58;4.80;99.90
22065;DHT22;11197;53.110;8.468;2023-04-26T04:33:26;4.80;99.90
22065;DHT22;11197;53.110;8.468;2023-04-26T04:35:54;4.80;99.90
22065;DHT22;11197;53.110;8.468;2023-04-26T04:38:20;4.80;99.90
22065;DHT22;11197;53.110;8.468;2023-04-26T04:40:49;4.80;99.90
22065;DHT22;11197;53.110;8.468;2023-04-26T04:43:16;4.90;99.90
22065;DHT22;11197;53.110;8.468;2023-04-26T04:45:43;4.90;99.90
22065;DHT22;11197;53.110;8.468;2023-04-26T04:48:09;4.90;99.90
22065;DHT22;11197;53.110;8.468;2023-04-26T04:50:38;4.90;99.90
22065;DHT22;11197;53.110;8.468;2023-04-26T04:53:04;4.90;99.90
22065;DHT22;11197;53.110;8.468;2023-04-26T04:55:30;4.90;99.90
22065;DHT22;11197;53.110;8.468;2023-04-26T04:57:56;4.90;99.90
22065;DHT22;11197;53.110;8.468;2023-04-26T05:00:22;4.90;99.90
22065;DHT22;11197;53.110;8.468;2023-04-26T05:02:53;5.00;99.90
22065;DHT22;11197;53.110;8.468;2023-04-26T05:05:19;5.00;99.90
22065;DHT22;11197;53.110;8.468;2023-04-26T05:07:46;5.00;99.90
22065;DHT22;11197;53.110;8.468;2023-04-26T05:10:12;5.10;99.90
22065;DHT22;11197;53.110;8.468;2023-04-26T05:12:38;5.10;99.90
22065;DHT22;11197;53.110;8.468;2023-04-26T05:15:06;5.10;99.90
22065;DHT22;11197;53.110;8.468;2023-04-26T05:17:32;5.10;99.90
22065;DHT22;11197;53.110;8.468;2023-04-26T05:20:06;5.10;99.90
22065;DHT22;11197;53.110;8.468;2023-04-26T05:22:33;5.20;99.90
22065;DHT22;11197;53.110;8.468;2023-04-26T05:25:01;5.20;99.90
22065;DHT22;11197;53.110;8.468;2023-04-26T05:27:29;5.20;99.90
22065;DHT22;11197;53.110;8.468;2023-04-26T05:30:27;5.30;99.90
22065;DHT22;11197;53.110;8.468;2023-04-26T05:33:05;5.30;99.90
22065;DHT22;11197;53.110;8.468;2023-04-26T05:35:41;5.30;99.90
22065;DHT22;11197;53.110;8.468;2023-04-26T05:38:06;5.30;99.90
22065;DHT22;11197;53.110;8.468;2023-04-26T05:40:34;5.40;99.90
22065;DHT22;11197;53.110;8.468;2023-04-26T05:43:01;5.40;99.90
22065;DHT22;11197;53.110;8.468;2023-04-26T05:45:27;5.40;99.90
22065;DHT22;11197;53.110;8.468;2023-04-26T05:47:53;5.40;99.90
22065;DHT22;11197;53.110;8.468;2023-04-26T05:50:19;5.50;99.90
22065;DHT22;11197;53.110;8.468;2023-04-26T05:52:44;5.40;99.90
22065;DHT22;11197;53.110;8.468;2023-04-26T05:55:11;5.40;99.90
22065;DHT22;11197;53.110;8.468;2023-04-26T05:57:38;5.40;99.90
22065;DHT22;11197;53.110;8.468;2023-04-26T06:00:06;5.50;99.90
22065;DHT22;11197;53.110;8.468;2023-04-26T06:02:39;5.50;99.90
22065;DHT22;11197;53.110;8.468;2023-04-26T06:05:09;5.60;99.90
22065;DHT22;11197;53.110;8.468;2023-04-26T06:07:35;5.70;99.90
22065;DHT22;11197;53.110;8.468;2023-04-26T06:10:02;5.80;99.90
22065;DHT22;11197;53.110;8.468;2023-04-26T06:12:28;5.90;99.90
22065;DHT22;11197;53.110;8.468;2023-04-26T06:14:57;5.90;99.90
22065;DHT22;11197;53.110;8.468;2023-04-26T06:17:26;6.00;99.90
22065;DHT22;11197;53.110;8.468;2023-04-26T06:19:52;6.00;99.90
22065;DHT22;11197;53.110;8.468;2023-04-26T06:22:17;6.10;99.90
22065;DHT22;11197;53.110;8.468;2023-04-26T06:24:43;6.20;99.90
22065;DHT22;11197;53.110;8.468;2023-04-26T06:27:09;6.20;99.90
22065;DHT22;11197;53.110;8.468;2023-04-26T06:29:37;6.30;99.90
22065;DHT22;11197;53.110;8.468;2023-04-26T06:32:02;6.40;99.90
22065;DHT22;11197;53.110;8.468;2023-04-26T06:34:28;6.40;99.90
22065;DHT22;11197;53.110;8.468;2023-04-26T06:36:55;6.50;99.90
22065;DHT22;11197;53.110;8.468;2023-04-26T06:39:24;6.50;99.90
22065;DHT22;11197;53.110;8.468;2023-04-26T06:41:50;6.60;99.90
22065;DHT22;11197;53.110;8.468;2023-04-26T06:44:26;6.70;99.90
22065;DHT22;11197;53.110;8.468;2023-04-26T06:46:59;6.80;99.90
22065;DHT22;11197;53.110;8.468;2023-04-26T06:49:25;6.90;99.90
22065;DHT22;11197;53.110;8.468;2023-04-26T06:51:51;7.00;99.90
22065;DHT22;11197;53.110;8.468;2023-04-26T06:54:18;7.10;99.90
22065;DHT22;11197;53.110;8.468;2023-04-26T06:56:44;7.20;99.90
22065;DHT22;11197;53.110;8.468;2023-04-26T06:59:10;7.20;99.90
22065;DHT22;11197;53.110;8.468;2023-04-26T07:01:37;7.30;99.90
22065;DHT22;11197;53.110;8.468;2023-04-26T07:04:04;7.30;99.90
22065;DHT22;11197;53.110;8.468;2023-04-26T07:06:36;7.40;99.90
22065;DHT22;11197;53.110;8.468;2023-04-26T07:09:02;7.40;99.90
22065;DHT22;11197;53.110;8.468;2023-04-26T07:11:29;7.40;99.90
22065;DHT22;11197;53.110;8.468;2023-04-26T07:13:55;7.40;99.90
22065;DHT22;11197;53.110;8.468;2023-04-26T07:16:21;7.50;99.90
22065;DHT22;11197;53.110;8.468;2023-04-26T07:18:47;7.50;99.90
22065;DHT22;11197;53.110;8.468;2023-04-26T07:21:13;7.60;99.90
22065;DHT22;11197;53.110;8.468;2023-04-26T07:23:40;7.70;99.90
22065;DHT22;11197;53.110;8.468;2023-04-26T07:26:06;7.70;99.90
22065;DHT22;11197;53.110;8.468;2023-04-26T07:28:32;7.80;99.90
22065;DHT22;11197;53.110;8.468;2023-04-26T07:30:59;7.90;99.90
22065;DHT22;11197;53.110;8.468;2023-04-26T07:33:26;7.90;99.90
22065;DHT22;11197;53.110;8.468;2023-04-26T07:35:53;7.90;99.90
22065;DHT22;11197;53.110;8.468;2023-04-26T07:38:21;7.90;99.90
22065;DHT22;11197;53.110;8.468;2023-04-26T07:40:47;7.80;99.90
22065;DHT22;11197;53.110;8.468;2023-04-26T07:43:13;7.80;99.90
22065;DHT22;11197;53.110;8.468;2023-04-26T07:45:42;7.80;99.90
22065;DHT22;11197;53.110;8.468;2023-04-26T07:48:08;7.70;99.90
22065;DHT22;11197;53.110;8.468;2023-04-26T07:50:34;7.80;99.90
22065;DHT22;11197;53.110;8.468;2023-04-26T07:53:00;7.90;99.90
22065;DHT22;11197;53.110;8.468;2023-04-26T07:55:26;7.90;99.90
22065;DHT22;11197;53.110;8.468;2023-04-26T07:57:52;7.80;99.90
22065;DHT22;11197;53.110;8.468;2023-04-26T08:00:18;7.90;99.90
22065;DHT22;11197;53.110;8.468;2023-04-26T08:02:45;7.90;99.90
22065;DHT22;11197;53.110;8.468;2023-04-26T08:05:11;7.90;99.90
22065;DHT22;11197;53.110;8.468;2023-04-26T08:07:38;8.00;99.90
22065;DHT22;11197;53.110;8.468;2023-04-26T08:10:05;8.10;99.90
22065;DHT22;11197;53.110;8.468;2023-04-26T08:12:32;8.10;99.90
22065;DHT22;11197;53.110;8.468;2023-04-26T08:14:59;8.20;99.90
22065;DHT22;11197;53.110;8.468;2023-04-26T08:17:26;8.30;99.90
22065;DHT22;11197;53.110;8.468;2023-04-26T08:19:52;8.30;99.90
22065;DHT22;11197;53.110;8.468;2023-04-26T08:22:18;8.40;99.90
22065;DHT22;11197;53.110;8.468;2023-04-26T08:24:48;8.40;99.90
22065;DHT22;11197;53.110;8.468;2023-04-26T08:27:18;8.50;99.90
22065;DHT22;11197;53.110;8.468;2023-04-26T08:29:45;8.50;99.90
22065;DHT22;11197;53.110;8.468;2023-04-26T08:32:11;8.40;99.90
22065;DHT22;11197;53.110;8.468;2023-04-26T08:34:37;8.50;99.90
22065;DHT22;11197;53.110;8.468;2023-04-26T08:37:03;8.50;99.90
22065;DHT22;11197;53.110;8.468;2023-04-26T08:39:30;8.50;99.90
22065;DHT22;11197;53.110;8.468;2023-04-26T08:42:04;8.60;99.90
22065;DHT22;11197;53.110;8.468;2023-04-26T08:44:33;8.60;99.90
22065;DHT22;11197;53.110;8.468;2023-04-26T08:47:06;8.70;99.90
22065;DHT22;11197;53.110;8.468;2023-04-26T08:49:43;8.70;99.90
22065;DHT22;11197;53.110;8.468;2023-04-26T08:52:11;8.70;99.90
22065;DHT22;11197;53.110;8.468;2023-04-26T08:54:38;8.70;99.90
22065;DHT22;11197;53.110;8.468;2023-04-26T08:57:08;8.60;99.90
22065;DHT22;11197;53.110;8.468;2023-04-26T08:59:38;8.60;99.90
22065;DHT22;11197;53.110;8.468;2023-04-26T09:02:05;8.50;99.90
22065;DHT22;11197;53.110;8.468;2023-04-26T09:04:31;8.50;99.90
22065;DHT22;11197;53.110;8.468;2023-04-26T09:07:00;8.50;99.90
22065;DHT22;11197;53.110;8.468;2023-04-26T09:09:34;8.40;99.90
22065;DHT22;11197;53.110;8.468;2023-04-26T09:12:02;8.40;99.90
22065;DHT22;11197;53.110;8.468;2023-04-26T09:14:28;8.20;99.90
22065;DHT22;11197;53.110;8.468;2023-04-26T09:16:54;8.10;99.90
22065;DHT22;11197;53.110;8.468;2023-04-26T09:19:37;8.00;99.90
22065;DHT22;11197;53.110;8.468;2023-04-26T09:22:03;7.90;99.90
22065;DHT22;11197;53.110;8.468;2023-04-26T09:24:48;7.80;99.90
22065;DHT22;11197;53.110;8.468;2023-04-26T09:27:15;7.70;99.90
22065;DHT22;11197;53.110;8.468;2023-04-26T09:30:08;7.70;99.90
22065;DHT22;11197;53.110;8.468;2023-04-26T09:35:34;7.50;99.90
22065;DHT22;11197;53.110;8.468;2023-04-26T09:38:07;7.50;99.90
22065;DHT22;11197;53.110;8.468;2023-04-26T09:40:54;7.50;99.90
22065;DHT22;11197;53.110;8.468;2023-04-26T09:43:23;7.50;99.90
22065;DHT22;11197;53.110;8.468;2023-04-26T09:45:54;7.60;99.90
22065;DHT22;11197;53.110;8.468;2023-04-26T09:51:15;7.70;99.90
22065;DHT22;11197;53.110;8.468;2023-04-26T09:53:44;7.70;99.90
22065;DHT22;11197;53.110;8.468;2023-04-26T09:56:18;7.80;99.90
22065;DHT22;11197;53.110;8.468;2023-04-26T09:58:58;7.90;99.90
22065;DHT22;11197;53.110;8.468;2023-04-26T10:01:26;7.90;99.90
22065;DHT22;11197;53.110;8.468;2023-04-26T10:03:55;8.10;99.90
22065;DHT22;11197;53.110;8.468;2023-04-26T10:06:22;8.20;99.90
22065;DHT22;11197;53.110;8.468;2023-04-26T10:08:48;8.30;99.90
22065;DHT22;11197;53.110;8.468;2023-04-26T10:11:14;8.40;99.90
22065;DHT22;11197;53.110;8.468;2023-04-26T10:13:40;8.50;99.90
22065;DHT22;11197;53.110;8.468;2023-04-26T10:16:07;8.60;99.90
22065;DHT22;11197;53.110;8.468;2023-04-26T10:18:34;8.60;99.90
22065;DHT22;11197;53.110;8.468;2023-04-26T10:21:15;8.50;99.90
22065;DHT22;11197;53.110;8.468;2023-04-26T10:23:42;8.30;99.90
22065;DHT22;11197;53.110;8.468;2023-04-26T10:29:14;8.10;99.90
22065;DHT22;11197;53.110;8.468;2023-04-26T10:34:36;8.20;99.90
22065;DHT22;11197;53.110;8.468;2023-04-26T10:37:15;8.20;99.90
22065;DHT22;11197;53.110;8.468;2023-04-26T10:39:45;8.20;99.90
22065;DHT22;11197;53.110;8.468;2023-04-26T10:42:27;8.30;99.90
22065;DHT22;11197;53.110;8.468;2023-04-26T10:44:58;8.30;99.90
22065;DHT22;11197;53.110;8.468;2023-04-26T10:47:33;8.40;99.90
22065;DHT22;11197;53.110;8.468;2023-04-26T10:50:05;8.40;99.90
22065;DHT22;11197;53.110;8.468;2023-04-26T10:52:32;8.50;99.90
22065;DHT22;11197;53.110;8.468;2023-04-26T10:54:58;8.50;99.90
22065;DHT22;11197;53.110;8.468;2023-04-26T10:57:53;8.60;99.90
22065;DHT22;11197;53.110;8.468;2023-04-26T11:00:28;8.70;99.90
22065;DHT22;11197;53.110;8.468;2023-04-26T11:03:05;8.80;99.90
22065;DHT22;11197;53.110;8.468;2023-04-26T11:08:19;9.00;99.90
22065;DHT22;11197;53.110;8.468;2023-04-26T11:10:50;9.10;99.90
22065;DHT22;11197;53.110;8.468;2023-04-26T11:13:17;9.10;99.90
22065;DHT22;11197;53.110;8.468;2023-04-26T11:15:44;9.20;99.90
22065;DHT22;11197;53.110;8.468;2023-04-26T11:18:11;9.30;99.90
22065;DHT22;11197;53.110;8.468;2023-04-26T11:20:36;9.40;99.90
22065;DHT22;11197;53.110;8.468;2023-04-26T11:23:02;9.40;99.90
22065;DHT22;11197;53.110;8.468;2023-04-26T11:25:32;9.40;99.90
22065;DHT22;11197;53.110;8.468;2023-04-26T11:27:59;9.40;99.90
22065;DHT22;11197;53.110;8.468;2023-04-26T11:30:30;9.40;99.90
22065;DHT22;11197;53.110;8.468;2023-04-26T11:33:03;9.30;99.90
22065;DHT22;11197;53.110;8.468;2023-04-26T11:35:35;9.20;99.90
22065;DHT22;11197;53.110;8.468;2023-04-26T11:38:03;9.20;99.90
22065;DHT22;11197;53.110;8.468;2023-04-26T11:40:32;9.00;99.90
22065;DHT22;11197;53.110;8.468;2023-04-26T11:43:09;8.90;99.90
22065;DHT22;11197;53.110;8.468;2023-04-26T11:45:36;8.80;99.90
22065;DHT22;11197;53.110;8.468;2023-04-26T11:48:07;8.80;99.90
22065;DHT22;11197;53.110;8.468;2023-04-26T11:50:36;8.70;99.90
22065;DHT22;11197;53.110;8.468;2023-04-26T11:53:04;8.70;99.90
22065;DHT22;11197;53.110;8.468;2023-04-26T11:55:30;8.70;99.90
22065;DHT22;11197;53.110;8.468;2023-04-26T11:58:08;8.60;99.90
22065;DHT22;11197;53.110;8.468;2023-04-26T12:00:34;8.50;99.90
22065;DHT22;11197;53.110;8.468;2023-04-26T12:03:04;8.50;99.90
22065;DHT22;11197;53.110;8.468;2023-04-26T12:05:35;8.50;99.90
22065;DHT22;11197;53.110;8.468;2023-04-26T12:08:01;8.60;99.90
22065;DHT22;11197;53.110;8.468;2023-04-26T12:10:37;8.60;99.90
22065;DHT22;11197;53.110;8.468;2023-04-26T12:13:03;8.70;99.90
22065;DHT22;11197;53.110;8.468;2023-04-26T12:15:31;8.70;99.90
22065;DHT22;11197;53.110;8.468;2023-04-26T12:18:04;8.80;99.90
22065;DHT22;11197;53.110;8.468;2023-04-26T12:20:35;8.80;99.90
22065;DHT22;11197;53.110;8.468;2023-04-26T12:23:05;8.90;99.90
22065;DHT22;11197;53.110;8.468;2023-04-26T12:25:33;8.90;99.90
22065;DHT22;11197;53.110;8.468;2023-04-26T12:27:59;8.90;99.90
22065;DHT22;11197;53.110;8.468;2023-04-26T12:30:27;9.00;99.90
22065;DHT22;11197;53.110;8.468;2023-04-26T12:33:02;9.10;99.90
22065;DHT22;11197;53.110;8.468;2023-04-26T12:35:30;9.20;99.90
22065;DHT22;11197;53.110;8.468;2023-04-26T12:37:56;9.20;99.90
22065;DHT22;11197;53.110;8.468;2023-04-26T12:40:26;9.30;99.90
22065;DHT22;11197;53.110;8.468;2023-04-26T12:42:52;9.20;99.90
22065;DHT22;11197;53.110;8.468;2023-04-26T12:45:22;9.20;99.90
22065;DHT22;11197;53.110;8.468;2023-04-26T12:47:48;9.30;99.90
22065;DHT22;11197;53.110;8.468;2023-04-26T12:50:14;9.10;99.90
22065;DHT22;11197;53.110;8.468;2023-04-26T12:52:42;9.10;99.90
22065;DHT22;11197;53.110;8.468;2023-04-26T12:55:13;9.10;99.90
22065;DHT22;11197;53.110;8.468;2023-04-26T12:57:45;9.20;99.90
22065;DHT22;11197;53.110;8.468;2023-04-26T13:00:16;9.30;99.90
22065;DHT22;11197;53.110;8.468;2023-04-26T13:02:46;9.30;99.90
22065;DHT22;11197;53.110;8.468;2023-04-26T13:05:12;9.30;99.90
22065;DHT22;11197;53.110;8.468;2023-04-26T13:07:40;9.40;99.90
22065;DHT22;11197;53.110;8.468;2023-04-26T13:10:07;9.40;99.90
22065;DHT22;11197;53.110;8.468;2023-04-26T13:12:35;9.40;99.90
22065;DHT22;11197;53.110;8.468;2023-04-26T13:15:01;9.50;99.90
22065;DHT22;11197;53.110;8.468;2023-04-26T13:17:29;9.50;99.90
22065;DHT22;11197;53.110;8.468;2023-04-26T13:19:56;9.50;99.90
22065;DHT22;11197;53.110;8.468;2023-04-26T13:22:22;9.50;99.90
22065;DHT22;11197;53.110;8.468;2023-04-26T13:24:48;9.50;99.90
22065;DHT22;11197;53.110;8.468;2023-04-26T13:27:14;9.50;99.90
22065;DHT22;11197;53.110;8.468;2023-04-26T13:29:40;9.50;99.90
22065;DHT22;11197;53.110;8.468;2023-04-26T13:32:06;9.40;99.90
22065;DHT22;11197;53.110;8.468;2023-04-26T13:34:33;9.40;99.90
22065;DHT22;11197;53.110;8.468;2023-04-26T13:36:59;9.40;99.90
22065;DHT22;11197;53.110;8.468;2023-04-26T13:39:26;9.30;99.90
22065;DHT22;11197;53.110;8.468;2023-04-26T13:41:55;9.40;99.90
22065;DHT22;11197;53.110;8.468;2023-04-26T13:44:24;9.40;99.90
22065;DHT22;11197;53.110;8.468;2023-04-26T13:46:50;9.40;99.90
22065;DHT22;11197;53.110;8.468;2023-04-26T13:49:16;9.40;99.90
22065;DHT22;11197;53.110;8.468;2023-04-26T13:51:43;9.40;99.90
22065;DHT22;11197;53.110;8.468;2023-04-26T13:54:09;9.40;99.90
22065;DHT22;11197;53.110;8.468;2023-04-26T13:56:36;9.40;99.90
22065;DHT22;11197;53.110;8.468;2023-04-26T13:59:05;9.40;99.90
22065;DHT22;11197;53.110;8.468;2023-04-26T14:01:33;9.40;99.90
22065;DHT22;11197;53.110;8.468;2023-04-26T14:04:00;9.40;99.90
22065;DHT22;11197;53.110;8.468;2023-04-26T14:06:25;9.50;99.90
22065;DHT22;11197;53.110;8.468;2023-04-26T14:08:51;9.50;99.90
22065;DHT22;11197;53.110;8.468;2023-04-26T14:11:17;9.60;99.90
22065;DHT22;11197;53.110;8.468;2023-04-26T14:13:43;9.60;99.90
22065;DHT22;11197;53.110;8.468;2023-04-26T14:16:10;9.60;99.90
22065;DHT22;11197;53.110;8.468;2023-04-26T14:18:36;9.70;99.90
22065;DHT22;11197;53.110;8.468;2023-04-26T14:21:04;9.70;99.90
22065;DHT22;11197;53.110;8.468;2023-04-26T14:23:30;9.70;99.90
22065;DHT22;11197;53.110;8.468;2023-04-26T14:25:56;9.60;99.90
22065;DHT22;11197;53.110;8.468;2023-04-26T14:28:22;9.60;99.90
22065;DHT22;11197;53.110;8.468;2023-04-26T14:30:48;9.60;99.90
22065;DHT22;11197;53.110;8.468;2023-04-26T14:33:14;9.50;99.90
22065;DHT22;11197;53.110;8.468;2023-04-26T14:35:40;9.50;99.90
22065;DHT22;11197;53.110;8.468;2023-04-26T14:38:06;9.40;99.90
22065;DHT22;11197;53.110;8.468;2023-04-26T14:40:32;9.40;99.90
22065;DHT22;11197;53.110;8.468;2023-04-26T14:42:58;9.30;99.90
22065;DHT22;11197;53.110;8.468;2023-04-26T14:45:24;9.30;99.90
22065;DHT22;11197;53.110;8.468;2023-04-26T14:47:49;9.30;99.90
22065;DHT22;11197;53.110;8.468;2023-04-26T14:50:15;9.20;99.90
22065;DHT22;11197;53.110;8.468;2023-04-26T14:52:44;9.20;99.90
22065;DHT22;11197;53.110;8.468;2023-04-26T14:55:19;9.20;99.90
22065;DHT22;11197;53.110;8.468;2023-04-26T14:57:47;9.20;99.90
22065;DHT22;11197;53.110;8.468;2023-04-26T15:00:13;9.20;99.90
22065;DHT22;11197;53.110;8.468;2023-04-26T15:02:42;9.10;99.90
22065;DHT22;11197;53.110;8.468;2023-04-26T15:05:09;9.20;99.90
22065;DHT22;11197;53.110;8.468;2023-04-26T15:07:36;9.20;99.90
22065;DHT22;11197;53.110;8.468;2023-04-26T15:10:02;9.20;99.90
22065;DHT22;11197;53.110;8.468;2023-04-26T15:12:29;9.20;99.90
22065;DHT22;11197;53.110;8.468;2023-04-26T15:14:55;9.10;99.90
22065;DHT22;11197;53.110;8.468;2023-04-26T15:17:21;9.10;99.90
22065;DHT22;11197;53.110;8.468;2023-04-26T15:19:47;9.10;99.90
22065;DHT22;11197;53.110;8.468;2023-04-26T15:22:13;9.10;99.90
22065;DHT22;11197;53.110;8.468;2023-04-26T15:24:40;9.10;99.90
22065;DHT22;11197;53.110;8.468;2023-04-26T15:27:07;9.10;99.90
22065;DHT22;11197;53.110;8.468;2023-04-26T15:29:34;9.10;99.90
22065;DHT22;11197;53.110;8.468;2023-04-26T15:32:00;9.00;99.90
22065;DHT22;11197;53.110;8.468;2023-04-26T15:34:26;9.00;99.90
22065;DHT22;11197;53.110;8.468;2023-04-26T15:36:58;9.00;99.90
22065;DHT22;11197;53.110;8.468;2023-04-26T15:39:25;9.00;99.90
22065;DHT22;11197;53.110;8.468;2023-04-26T15:41:51;9.00;99.90
22065;DHT22;11197;53.110;8.468;2023-04-26T15:44:17;9.00;99.90
22065;DHT22;11197;53.110;8.468;2023-04-26T15:46:44;9.00;99.90
22065;DHT22;11197;53.110;8.468;2023-04-26T15:49:10;9.00;99.90
22065;DHT22;11197;53.110;8.468;2023-04-26T15:51:36;9.00;99.90
22065;DHT22;11197;53.110;8.468;2023-04-26T15:54:02;8.90;99.90
22065;DHT22;11197;53.110;8.468;2023-04-26T15:56:27;9.00;99.90
22065;DHT22;11197;53.110;8.468;2023-04-26T15:58:53;9.00;99.90
22065;DHT22;11197;53.110;8.468;2023-04-26T16:01:21;9.00;99.90
22065;DHT22;11197;53.110;8.468;2023-04-26T16:03:47;9.00;99.90